createdAt,value
2023-03-27T00:01:16.888Z,91.36
2023-03-27T00:03:43.483Z,89.42
2023-03-27T00:06:16.148Z,89.32
2023-03-27T00:08:47.510Z,89.08
2023-03-27T00:11:15.402Z,89.60
2023-03-27T00:13:49.517Z,88.79
2023-03-27T00:16:25.131Z,89.17
2023-03-27T00:18:52.945Z,88.32
2023-03-27T00:21:19.429Z,87.84
2023-03-27T00:23:46.002Z,87.04
2023-03-27T00:26:12.688Z,90.05
2023-03-27T00:28:39.268Z,88.92
2023-03-27T00:31:11.398Z,88.13
2023-03-27T00:33:37.888Z,87.14
2023-03-27T00:36:04.580Z,85.94
2023-03-27T00:38:31.406Z,84.94
2023-03-27T00:40:58.119Z,84.24
2023-03-27T00:43:33.765Z,83.27
2023-03-27T00:46:08.055Z,83.59
2023-03-27T00:48:37.574Z,81.78
2023-03-27T00:51:06.109Z,82.94
2023-03-27T00:53:33.158Z,80.78
2023-03-27T00:56:03.596Z,81.13
2023-03-27T00:59:05.253Z,79.16
2023-03-27T01:01:32.137Z,77.60
2023-03-27T01:04:02.129Z,77.21
2023-03-27T01:06:31.131Z,79.41
2023-03-27T01:08:57.739Z,77.68
2023-03-27T01:11:58.040Z,76.98
2023-03-27T01:14:33.533Z,78.31
2023-03-27T01:17:37.654Z,77.36
2023-03-27T01:20:22.965Z,79.01
2023-03-27T01:23:01.726Z,79.56
2023-03-27T01:25:56.693Z,79.34
2023-03-27T01:29:00.601Z,80.52
2023-03-27T01:31:44.639Z,79.93
2023-03-27T01:34:16.906Z,80.59
2023-03-27T01:37:14.637Z,81.61
2023-03-27T01:40:07.955Z,82.36
2023-03-27T01:42:54.875Z,81.44
2023-03-27T01:45:29.016Z,82.09
2023-03-27T01:48:04.254Z,82.11
2023-03-27T01:50:40.327Z,82.14
2023-03-27T01:53:13.856Z,82.70
2023-03-27T01:55:46.540Z,83.37
2023-03-27T01:58:38.178Z,83.06
2023-03-27T02:01:08.804Z,84.01
2023-03-27T02:03:41.696Z,82.49
2023-03-27T02:06:33.416Z,83.91
2023-03-27T02:09:13.367Z,83.17
2023-03-27T02:12:01.086Z,83.16
2023-03-27T02:14:32.817Z,82.96
2023-03-27T02:17:03.572Z,84.61
2023-03-27T02:19:35.061Z,83.30
2023-03-27T02:22:01.637Z,82.00
2023-03-27T02:24:28.862Z,82.27
2023-03-27T02:27:01.878Z,80.61
2023-03-27T02:30:10.473Z,81.20
2023-03-27T02:32:40.013Z,81.22
2023-03-27T02:35:23.163Z,81.54
2023-03-27T02:38:04.439Z,82.13
2023-03-27T02:40:45.546Z,81.52
2023-03-27T02:43:33.412Z,81.41
2023-03-27T02:46:12.207Z,81.15
2023-03-27T02:48:54.929Z,81.30
2023-03-27T02:51:28.769Z,82.11
2023-03-27T02:54:13.167Z,81.68
2023-03-27T02:56:48.670Z,82.16
2023-03-27T02:59:22.478Z,82.65
2023-03-27T03:01:49.810Z,82.38
2023-03-27T03:04:29.509Z,80.90
2023-03-27T03:06:56.129Z,82.13
2023-03-27T03:09:24.817Z,82.10
2023-03-27T03:11:53.156Z,82.24
2023-03-27T03:14:24.658Z,82.98
2023-03-27T03:16:51.813Z,82.55
2023-03-27T03:19:18.307Z,82.50
2023-03-27T03:21:46.846Z,82.04
2023-03-27T03:24:13.242Z,82.74
2023-03-27T03:26:40.088Z,83.27
2023-03-27T03:29:06.587Z,83.83
2023-03-27T03:31:44.403Z,82.14
2023-03-27T03:34:22.426Z,82.58
2023-03-27T03:36:49.657Z,83.10
2023-03-27T03:39:17.443Z,83.40
2023-03-27T03:41:43.855Z,82.85
2023-03-27T03:44:10.476Z,82.70
2023-03-27T03:46:36.991Z,82.36
2023-03-27T03:49:04.894Z,84.71
2023-03-27T03:51:32.760Z,83.91
2023-03-27T03:53:59.185Z,82.80
2023-03-27T03:56:27.765Z,85.13
2023-03-27T03:58:54.144Z,84.29
2023-03-27T04:01:21.635Z,84.93
2023-03-27T04:03:48.961Z,84.60
2023-03-27T04:06:17.625Z,84.69
2023-03-27T04:08:47.134Z,83.76
2023-03-27T04:11:13.563Z,84.43
2023-03-27T04:13:40.058Z,84.50
2023-03-27T04:16:08.075Z,85.25
2023-03-27T04:18:35.379Z,85.29
2023-03-27T04:21:02.117Z,84.27
2023-03-27T04:23:30.423Z,84.43
2023-03-27T04:26:01.088Z,85.11
2023-03-27T04:28:30.265Z,84.70
2023-03-27T04:30:58.159Z,84.65
2023-03-27T04:33:25.728Z,84.94
2023-03-27T04:36:06.935Z,84.63
2023-03-27T04:38:38.134Z,84.55
2023-03-27T04:41:06.067Z,84.52
2023-03-27T04:43:36.506Z,83.52
2023-03-27T04:46:05.824Z,84.75
2023-03-27T04:48:32.651Z,83.93
2023-03-27T04:50:59.230Z,84.51
2023-03-27T04:53:30.013Z,84.02
2023-03-27T04:55:57.223Z,83.68
2023-03-27T04:58:25.751Z,83.92
2023-03-27T05:00:55.663Z,83.76
2023-03-27T05:03:24.024Z,83.45
2023-03-27T05:05:50.735Z,83.53
2023-03-27T05:08:18.120Z,83.05
2023-03-27T05:10:46.501Z,82.84
2023-03-27T05:13:13.450Z,83.85
2023-03-27T05:15:39.797Z,83.86
2023-03-27T05:18:07.160Z,84.76
2023-03-27T05:20:34.374Z,84.56
2023-03-27T05:23:00.930Z,84.20
2023-03-27T05:25:28.738Z,85.28
2023-03-27T05:27:55.376Z,85.39
2023-03-27T05:30:23.619Z,84.79
2023-03-27T05:32:52.078Z,84.09
2023-03-27T05:35:20.944Z,83.63
2023-03-27T05:37:48.923Z,83.95
2023-03-27T05:40:17.593Z,83.87
2023-03-27T05:42:45.329Z,83.38
2023-03-27T05:45:13.336Z,83.10
2023-03-27T05:47:48.531Z,83.42
2023-03-27T05:50:16.497Z,82.67
2023-03-27T05:52:43.007Z,82.80
2023-03-27T05:55:10.358Z,83.21
2023-03-27T05:57:39.301Z,83.07
2023-03-27T06:00:14.093Z,83.40
2023-03-27T06:02:44.866Z,83.45
2023-03-27T06:05:16.202Z,82.84
2023-03-27T06:07:43.863Z,83.25
2023-03-27T06:10:13.692Z,83.14
2023-03-27T06:12:41.588Z,82.29
2023-03-27T06:15:09.687Z,82.92
2023-03-27T06:17:38.215Z,83.00
2023-03-27T06:20:15.420Z,82.48
2023-03-27T06:22:48.383Z,82.43
2023-03-27T06:25:15.931Z,82.50
2023-03-27T06:27:43.329Z,83.51
2023-03-27T06:30:11.251Z,83.57
2023-03-27T06:32:43.554Z,83.15
2023-03-27T06:35:10.230Z,81.84
2023-03-27T06:37:36.795Z,82.09
2023-03-27T06:40:09.344Z,81.22
2023-03-27T06:42:36.877Z,81.76
2023-03-27T06:45:05.059Z,81.51
2023-03-27T06:47:33.151Z,83.08
2023-03-27T06:50:01.186Z,81.38
2023-03-27T06:52:27.654Z,81.42
2023-03-27T06:54:54.042Z,82.75
2023-03-27T06:57:20.461Z,82.23
2023-03-27T06:59:47.166Z,82.02
2023-03-27T07:02:13.683Z,81.14
2023-03-27T07:04:40.852Z,80.91
2023-03-27T07:07:08.085Z,82.06
2023-03-27T07:09:35.454Z,82.29
2023-03-27T07:12:02.983Z,83.10
2023-03-27T07:14:29.391Z,81.13
2023-03-27T07:16:55.745Z,81.88
2023-03-27T07:19:22.146Z,82.58
2023-03-27T07:21:48.572Z,81.05
2023-03-27T07:24:14.936Z,81.15
2023-03-27T07:26:41.276Z,80.84
2023-03-27T07:29:10.597Z,81.81
2023-03-27T07:34:09.420Z,80.11
2023-03-27T07:36:36.353Z,80.23
2023-03-27T07:39:02.795Z,79.73
2023-03-27T07:41:30.178Z,79.58
2023-03-27T07:43:57.079Z,80.28
2023-03-27T07:46:24.382Z,80.09
2023-03-27T07:48:51.133Z,79.74
2023-03-27T07:51:17.626Z,80.64
2023-03-27T07:53:44.473Z,80.86
2023-03-27T07:56:11.045Z,80.67
2023-03-27T07:58:37.412Z,80.27
2023-03-27T08:01:04.531Z,81.44
2023-03-27T08:03:31.299Z,81.59
2023-03-27T08:06:00.508Z,81.11
2023-03-27T08:08:28.184Z,80.18
2023-03-27T08:10:55.406Z,80.56
2023-03-27T08:13:21.810Z,78.83
2023-03-27T08:15:48.252Z,78.06
2023-03-27T08:18:14.657Z,77.87
2023-03-27T08:20:42.336Z,76.09
2023-03-27T08:23:08.670Z,77.69
2023-03-27T08:25:35.682Z,77.27
2023-03-27T08:28:02.758Z,77.39
2023-03-27T08:30:29.624Z,77.68
2023-03-27T08:32:56.851Z,75.87
2023-03-27T08:35:23.364Z,75.27
2023-03-27T08:37:49.839Z,77.53
2023-03-27T08:40:26.153Z,78.03
2023-03-27T08:42:57.118Z,78.43
2023-03-27T08:45:31.762Z,77.07
2023-03-27T08:48:05.427Z,78.55
2023-03-27T08:50:37.617Z,78.58
2023-03-27T08:53:11.283Z,77.50
2023-03-27T08:55:41.345Z,78.77
2023-03-27T08:58:19.738Z,77.69
2023-03-27T09:00:53.557Z,76.37
2023-03-27T09:03:41.162Z,74.65
2023-03-27T09:06:18.546Z,73.93
2023-03-27T09:08:44.896Z,74.35
2023-03-27T09:11:39.368Z,73.31
2023-03-27T09:14:19.603Z,72.16
2023-03-27T09:16:50.239Z,71.32
2023-03-27T09:19:33.487Z,72.34
2023-03-27T09:22:07.855Z,74.94
2023-03-27T09:24:43.480Z,69.76
2023-03-27T09:27:19.438Z,68.30
2023-03-27T09:30:14.284Z,71.96
2023-03-27T09:32:42.835Z,72.70
2023-03-27T09:35:14.466Z,76.15
2023-03-27T09:37:42.726Z,78.20
2023-03-27T09:40:21.630Z,79.59
2023-03-27T09:42:49.489Z,76.37
2023-03-27T09:45:16.473Z,73.92
2023-03-27T09:47:55.097Z,72.73
2023-03-27T09:50:31.033Z,76.20
2023-03-27T09:53:19.234Z,79.80
2023-03-27T09:56:13.087Z,85.09
2023-03-27T09:58:43.953Z,89.96
2023-03-27T10:01:37.183Z,94.24
2023-03-27T10:04:20.017Z,95.09
2023-03-27T10:06:49.176Z,96.45
2023-03-27T10:09:23.311Z,94.87
2023-03-27T10:11:51.691Z,93.92
2023-03-27T10:14:21.368Z,91.81
2023-03-27T10:16:48.171Z,95.25
2023-03-27T10:19:36.239Z,95.51
2023-03-27T10:22:31.048Z,94.26
2023-03-27T10:25:13.587Z,94.77
2023-03-27T10:27:43.566Z,93.64
2023-03-27T10:30:37.921Z,92.87
2023-03-27T10:33:04.413Z,89.81
2023-03-27T10:35:37.868Z,89.00
2023-03-27T10:38:15.314Z,87.00
2023-03-27T10:40:44.771Z,85.39
2023-03-27T10:43:16.599Z,84.27
2023-03-27T10:45:49.715Z,84.27
2023-03-27T10:48:38.987Z,82.78
2023-03-27T10:51:13.182Z,82.01
2023-03-27T10:53:49.144Z,80.71
2023-03-27T10:56:18.995Z,80.89
2023-03-27T10:58:50.894Z,78.17
2023-03-27T11:01:26.425Z,78.65
2023-03-27T11:04:01.120Z,78.78
2023-03-27T11:06:34.031Z,81.20
2023-03-27T11:09:09.887Z,83.30
2023-03-27T11:11:41.066Z,87.49
2023-03-27T11:14:17.426Z,85.65
2023-03-27T11:16:56.977Z,86.33
2023-03-27T11:19:53.839Z,89.05
2023-03-27T11:22:49.448Z,85.86
2023-03-27T11:25:29.669Z,84.73
2023-03-27T11:28:10.347Z,85.32
2023-03-27T11:30:44.366Z,86.35
2023-03-27T11:33:38.602Z,86.94
2023-03-27T11:36:37.555Z,87.49
2023-03-27T11:39:15.509Z,84.92
2023-03-27T11:41:47.326Z,84.84
2023-03-27T11:44:13.732Z,86.37
2023-03-27T11:46:49.228Z,82.74
2023-03-27T11:49:15.584Z,83.43
2023-03-27T11:51:53.836Z,82.76
2023-03-27T11:54:49.000Z,79.54
2023-03-27T11:57:24.252Z,77.31
2023-03-27T12:00:18.801Z,76.68
2023-03-27T12:03:07.855Z,77.04
2023-03-27T12:05:49.495Z,75.34
2023-03-27T12:08:28.098Z,76.07
2023-03-27T12:10:58.938Z,74.66
2023-03-27T12:14:01.149Z,74.19
2023-03-27T12:17:01.118Z,61.76
2023-03-27T12:20:01.988Z,72.67
2023-03-27T12:22:28.312Z,76.96
2023-03-27T12:25:12.633Z,78.75
2023-03-27T12:27:52.062Z,76.97
2023-03-27T12:30:23.995Z,77.04
2023-03-27T12:33:25.127Z,75.10
2023-03-27T12:35:57.718Z,73.44
2023-03-27T12:38:30.041Z,76.38
2023-03-27T12:41:20.704Z,78.38
2023-03-27T12:43:48.246Z,77.47
2023-03-27T12:46:14.626Z,77.14
2023-03-27T12:48:50.239Z,78.05
2023-03-27T12:51:20.320Z,76.16
2023-03-27T12:53:54.682Z,77.22
2023-03-27T12:56:26.802Z,76.53
2023-03-27T12:58:55.388Z,74.08
2023-03-27T13:01:51.507Z,70.46
2023-03-27T13:04:39.593Z,71.81
2023-03-27T13:07:28.958Z,70.01
2023-03-27T13:10:17.293Z,68.71
2023-03-27T13:12:53.715Z,67.89
2023-03-27T13:15:22.793Z,63.28
2023-03-27T13:18:07.575Z,63.05
2023-03-27T13:20:52.635Z,59.01
2023-03-27T13:23:38.698Z,60.73
2023-03-27T13:26:22.596Z,60.54
2023-03-27T13:28:51.858Z,59.86
2023-03-27T13:31:46.192Z,60.40
2023-03-27T13:34:21.028Z,60.92
2023-03-27T13:36:48.952Z,60.35
2023-03-27T13:39:22.245Z,58.41
2023-03-27T13:41:56.244Z,58.18
2023-03-27T13:44:35.751Z,59.69
2023-03-27T13:47:10.135Z,60.51
2023-03-27T13:50:15.111Z,57.85
2023-03-27T13:52:48.235Z,56.85
2023-03-27T13:55:34.647Z,57.49
2023-03-27T13:58:30.719Z,57.47
2023-03-27T14:01:09.439Z,56.52
2023-03-27T14:03:54.927Z,51.48
2023-03-27T14:06:42.192Z,51.16
2023-03-27T14:09:35.319Z,53.05
2023-03-27T14:12:30.628Z,52.56
2023-03-27T14:15:15.520Z,53.54
2023-03-27T14:17:44.896Z,51.17
2023-03-27T14:20:20.336Z,50.70
2023-03-27T14:23:07.332Z,51.27
2023-03-27T14:25:38.192Z,49.35
2023-03-27T14:28:08.873Z,49.80
2023-03-27T14:30:47.512Z,50.04
2023-03-27T14:33:20.092Z,49.66
2023-03-27T14:35:57.234Z,52.76
2023-03-27T14:38:25.389Z,52.81
2023-03-27T14:40:57.259Z,50.95
2023-03-27T14:43:27.538Z,50.18
2023-03-27T14:46:05.974Z,50.11
2023-03-27T14:48:33.460Z,49.27
2023-03-27T14:51:06.051Z,47.56
2023-03-27T14:53:36.334Z,49.13
2023-03-27T14:56:12.868Z,50.07
2023-03-27T14:58:46.107Z,49.53
2023-03-27T15:01:16.919Z,48.91
2023-03-27T15:03:45.830Z,47.77
2023-03-27T15:06:17.184Z,49.33
2023-03-27T15:08:52.023Z,48.52
2023-03-27T15:11:37.424Z,50.31
2023-03-27T15:14:05.350Z,50.67
2023-03-27T15:16:35.769Z,50.81
2023-03-27T15:19:12.465Z,53.02
2023-03-27T15:21:58.499Z,51.67
2023-03-27T15:24:38.301Z,59.71
2023-03-27T15:27:05.802Z,63.51
2023-03-27T15:29:43.848Z,64.56
2023-03-27T15:32:14.508Z,67.47
2023-03-27T15:34:47.957Z,69.29
2023-03-27T15:37:23.890Z,70.28
2023-03-27T15:40:36.685Z,69.39
2023-03-27T15:43:05.045Z,68.65
2023-03-27T15:45:41.778Z,68.92
2023-03-27T15:48:35.259Z,69.84
2023-03-27T15:51:06.163Z,71.96
2023-03-27T15:53:37.095Z,72.29
2023-03-27T15:56:26.095Z,70.23
2023-03-27T15:59:00.123Z,71.00
2023-03-27T16:01:37.143Z,70.07
2023-03-27T16:04:07.642Z,71.34
2023-03-27T16:06:38.595Z,72.05
2023-03-27T16:09:27.001Z,71.23
2023-03-27T16:11:55.307Z,71.55
2023-03-27T16:14:32.058Z,72.04
2023-03-27T16:17:09.947Z,72.06
2023-03-27T16:19:53.379Z,70.94
2023-03-27T16:22:22.724Z,65.64
2023-03-27T16:24:49.437Z,67.81
2023-03-27T16:27:17.229Z,68.59
2023-03-27T16:29:43.682Z,72.63
2023-03-27T16:32:13.206Z,76.32
2023-03-27T16:34:40.566Z,78.68
2023-03-27T16:37:07.616Z,79.00
2023-03-27T16:39:34.443Z,79.23
2023-03-27T16:42:00.867Z,80.11
2023-03-27T16:44:27.267Z,86.10
2023-03-27T16:46:53.665Z,89.03
2023-03-27T16:49:20.066Z,90.64
2023-03-27T16:51:46.440Z,89.93
2023-03-27T16:54:12.811Z,91.03
2023-03-27T16:56:39.230Z,89.92
2023-03-27T16:59:05.618Z,90.54
2023-03-27T17:01:32.097Z,90.82
2023-03-27T17:03:58.551Z,90.24
2023-03-27T17:06:25.195Z,90.76
2023-03-27T17:08:55.475Z,89.08
2023-03-27T17:11:22.850Z,90.90
2023-03-27T17:13:50.306Z,91.73
2023-03-27T17:16:16.952Z,91.50
2023-03-27T17:18:43.418Z,89.56
2023-03-27T17:21:10.278Z,87.42
2023-03-27T17:23:36.712Z,89.04
2023-03-27T17:26:04.995Z,91.02
2023-03-27T17:28:31.961Z,90.90
2023-03-27T17:31:04.769Z,91.09
2023-03-27T17:33:32.083Z,90.49
2023-03-27T17:35:58.788Z,89.08
2023-03-27T17:38:25.568Z,88.42
2023-03-27T17:40:52.052Z,88.34
2023-03-27T17:43:18.613Z,88.59
2023-03-27T17:45:45.449Z,88.75
2023-03-27T17:48:12.024Z,89.63
2023-03-27T17:50:39.468Z,90.31
2023-03-27T17:53:06.720Z,90.16
2023-03-27T17:55:33.230Z,90.74
2023-03-27T17:58:08.915Z,92.52
2023-03-27T18:00:37.203Z,92.32
2023-03-27T18:03:04.047Z,92.91
2023-03-27T18:05:30.631Z,93.96
2023-03-27T18:07:57.157Z,94.74
2023-03-27T18:10:24.314Z,94.86
2023-03-27T18:12:50.988Z,95.68
2023-03-27T18:15:17.379Z,95.48
2023-03-27T18:17:43.863Z,95.29
2023-03-27T18:20:10.688Z,96.43
2023-03-27T18:22:38.164Z,96.10
2023-03-27T18:25:06.873Z,95.84
2023-03-27T18:27:33.242Z,95.45
2023-03-27T18:29:59.742Z,96.04
2023-03-27T18:32:26.242Z,96.06
2023-03-27T18:34:52.660Z,96.77
2023-03-27T18:37:19.201Z,95.94
2023-03-27T18:39:46.724Z,96.21
2023-03-27T18:42:13.515Z,96.42
2023-03-27T18:44:41.431Z,96.94
2023-03-27T18:47:08.174Z,95.52
2023-03-27T18:49:34.641Z,95.79
2023-03-27T18:52:01.041Z,95.78
2023-03-27T18:54:28.104Z,96.19
2023-03-27T18:56:54.613Z,95.95
2023-03-27T18:59:22.610Z,95.93
2023-03-27T19:01:49.285Z,95.76
2023-03-27T19:04:17.259Z,95.56
2023-03-27T19:06:43.933Z,95.25
2023-03-27T19:09:10.325Z,95.43
2023-03-27T19:11:37.008Z,95.68
2023-03-27T19:14:03.482Z,95.61
2023-03-27T19:16:30.672Z,95.80
2023-03-27T19:18:57.055Z,95.52
2023-03-27T19:21:23.495Z,96.02
2023-03-27T19:23:50.212Z,95.43
2023-03-27T19:26:19.231Z,94.62
2023-03-27T19:28:47.560Z,93.71
2023-03-27T19:31:14.623Z,93.67
2023-03-27T19:33:41.803Z,94.42
2023-03-27T19:36:09.220Z,95.38
2023-03-27T19:38:37.270Z,94.90
2023-03-27T19:41:07.994Z,94.50
2023-03-27T19:43:34.763Z,94.82
2023-03-27T19:46:15.077Z,93.46
2023-03-27T19:48:43.242Z,94.13
2023-03-27T19:51:09.699Z,93.75
2023-03-27T19:53:36.481Z,92.94
2023-03-27T19:56:03.139Z,92.31
2023-03-27T19:58:29.683Z,92.17
2023-03-27T20:00:57.451Z,92.25
2023-03-27T20:03:27.452Z,92.76
2023-03-27T20:05:56.268Z,92.86
2023-03-27T20:08:38.023Z,93.25
2023-03-27T20:11:06.719Z,91.65
2023-03-27T20:13:39.547Z,92.00
2023-03-27T20:16:14.823Z,92.79
2023-03-27T20:18:42.682Z,93.45
2023-03-27T20:21:10.182Z,92.92
2023-03-27T20:23:37.661Z,92.76
2023-03-27T20:26:04.454Z,93.35
2023-03-27T20:28:30.847Z,93.22
2023-03-27T20:31:05.294Z,92.95
2023-03-27T20:33:32.072Z,94.07
2023-03-27T20:35:58.658Z,95.41
2023-03-27T20:38:28.726Z,93.59
2023-03-27T20:40:56.397Z,94.07
2023-03-27T20:43:23.437Z,94.07
2023-03-27T20:45:51.888Z,94.77
2023-03-27T20:48:21.653Z,94.34
2023-03-27T20:50:51.135Z,93.88
2023-03-27T20:53:30.385Z,93.07
2023-03-27T20:56:00.620Z,93.89
2023-03-27T20:58:27.949Z,94.07
2023-03-27T21:00:56.024Z,93.80
2023-03-27T21:03:22.802Z,94.52
2023-03-27T21:05:49.375Z,94.38
2023-03-27T21:08:16.253Z,94.49
2023-03-27T21:10:42.752Z,94.09
2023-03-27T21:13:09.178Z,93.55
2023-03-27T21:15:35.575Z,94.65
2023-03-27T21:18:02.080Z,94.21
2023-03-27T21:20:28.621Z,94.96
2023-03-27T21:22:55.327Z,95.31
2023-03-27T21:25:22.586Z,95.72
2023-03-27T21:27:49.107Z,95.66
2023-03-27T21:30:16.558Z,94.77
2023-03-27T21:32:43.516Z,94.47
2023-03-27T21:35:10.479Z,95.03
2023-03-27T21:37:36.893Z,94.32
2023-03-27T21:40:04.811Z,95.18
2023-03-27T21:42:31.168Z,94.13
2023-03-27T21:44:57.645Z,93.06
2023-03-27T21:47:29.678Z,94.80
2023-03-27T21:50:00.999Z,94.33
2023-03-27T21:52:27.663Z,95.00
2023-03-27T21:55:03.015Z,94.60
2023-03-27T21:57:30.202Z,94.77
2023-03-27T21:59:56.633Z,95.46
2023-03-27T22:02:23.069Z,95.66
2023-03-27T22:04:49.524Z,95.40
2023-03-27T22:07:16.029Z,95.95
2023-03-27T22:09:45.904Z,96.67
2023-03-27T22:12:12.990Z,96.73
2023-03-27T22:14:39.509Z,96.52
2023-03-27T22:17:06.116Z,95.68
2023-03-27T22:19:32.631Z,95.40
2023-03-27T22:21:59.050Z,95.16
2023-03-27T22:24:25.431Z,93.56
2023-03-27T22:26:51.915Z,93.15
2023-03-27T22:29:18.492Z,93.58
2023-03-27T22:31:45.036Z,92.48
2023-03-27T22:34:11.680Z,92.50
2023-03-27T22:36:38.421Z,92.43
2023-03-27T22:39:05.489Z,92.84
2023-03-27T22:41:31.916Z,93.35
2023-03-27T22:44:01.790Z,92.14
2023-03-27T22:46:28.356Z,92.20
2023-03-27T22:48:56.337Z,92.88
2023-03-27T22:51:23.264Z,93.92
2023-03-27T22:53:49.748Z,94.95
2023-03-27T22:56:17.942Z,96.13
2023-03-27T22:58:45.043Z,96.38
2023-03-27T23:01:11.474Z,96.41
2023-03-27T23:03:38.419Z,96.20
2023-03-27T23:06:05.289Z,96.49
2023-03-27T23:08:31.701Z,96.32
2023-03-27T23:11:05.732Z,96.88
2023-03-27T23:13:33.967Z,96.63
2023-03-27T23:16:01.021Z,97.36
2023-03-27T23:18:27.597Z,97.78
2023-03-27T23:20:58.541Z,97.59
2023-03-27T23:23:26.643Z,97.47
2023-03-27T23:25:53.840Z,96.79
2023-03-27T23:28:20.508Z,96.66
2023-03-27T23:30:54.714Z,97.19
2023-03-27T23:33:24.756Z,96.77
2023-03-27T23:35:52.642Z,97.07
2023-03-27T23:38:19.124Z,96.64
2023-03-27T23:40:45.458Z,96.87
2023-03-27T23:43:11.854Z,96.35
2023-03-27T23:45:38.226Z,97.88
2023-03-27T23:48:04.724Z,96.79
2023-03-27T23:50:31.126Z,97.88
2023-03-27T23:52:57.522Z,98.30
2023-03-27T23:55:23.871Z,98.47
2023-03-27T23:57:50.218Z,96.85
